sensor_id;sensor_type;location;lat;lon;timestamp;pressure;altitude;pressure_sealevel;temperature;humidity
62420;BME280;48460;51.616;5.426;2022-07-04T00:00:10;101967.81;;;13.46;86.63
62420;BME280;48460;51.616;5.426;2022-07-04T00:02:37;101967.00;;;13.44;87.52
62420;BME280;48460;51.616;5.426;2022-07-04T00:05:04;101966.13;;;13.45;87.39
62420;BME280;48460;51.616;5.426;2022-07-04T00:07:29;101963.47;;;13.45;87.10
62420;BME280;48460;51.616;5.426;2022-07-04T00:09:55;101965.25;;;13.44;86.90
62420;BME280;48460;51.616;5.426;2022-07-04T00:12:20;101969.03;;;13.39;87.35
62420;BME280;48460;51.616;5.426;2022-07-04T00:14:46;101968.44;;;13.32;87.10
62420;BME280;48460;51.616;5.426;2022-07-04T00:17:11;101968.66;;;13.28;87.76
62420;BME280;48460;51.616;5.426;2022-07-04T00:19:37;101964.47;;;13.22;88.05
62420;BME280;48460;51.616;5.426;2022-07-04T00:22:02;101963.69;;;13.20;88.26
62420;BME280;48460;51.616;5.426;2022-07-04T00:24:28;101961.31;;;13.14;88.18
62420;BME280;48460;51.616;5.426;2022-07-04T00:26:53;101957.16;;;13.08;88.31
62420;BME280;48460;51.616;5.426;2022-07-04T00:29:18;101953.41;;;12.93;88.95
62420;BME280;48460;51.616;5.426;2022-07-04T00:31:44;101953.50;;;12.92;89.09
62420;BME280;48460;51.616;5.426;2022-07-04T00:34:09;101958.25;;;12.84;89.71
62420;BME280;48460;51.616;5.426;2022-07-04T00:36:35;101958.69;;;12.73;90.43
62420;BME280;48460;51.616;5.426;2022-07-04T00:39:00;101957.22;;;12.67;90.43
62420;BME280;48460;51.616;5.426;2022-07-04T00:41:26;101961.56;;;12.68;90.51
62420;BME280;48460;51.616;5.426;2022-07-04T00:44:04;101960.22;;;12.78;89.58
62420;BME280;48460;51.616;5.426;2022-07-04T00:46:30;101959.19;;;12.83;89.38
62420;BME280;48460;51.616;5.426;2022-07-04T00:48:56;101954.66;;;12.85;89.45
62420;BME280;48460;51.616;5.426;2022-07-04T00:51:22;101958.09;;;12.87;89.16
62420;BME280;48460;51.616;5.426;2022-07-04T00:53:48;101956.41;;;12.86;89.33
62420;BME280;48460;51.616;5.426;2022-07-04T00:56:14;101959.94;;;12.85;89.38
62420;BME280;48460;51.616;5.426;2022-07-04T00:58:40;101964.47;;;12.83;89.32
62420;BME280;48460;51.616;5.426;2022-07-04T01:01:05;101956.81;;;12.76;90.52
62420;BME280;48460;51.616;5.426;2022-07-04T01:03:31;101959.63;;;12.72;90.62
62420;BME280;48460;51.616;5.426;2022-07-04T01:05:58;101951.94;;;12.67;90.97
62420;BME280;48460;51.616;5.426;2022-07-04T01:08:25;101951.19;;;12.64;91.20
62420;BME280;48460;51.616;5.426;2022-07-04T01:10:50;101946.16;;;12.58;90.78
62420;BME280;48460;51.616;5.426;2022-07-04T01:13:22;101947.00;;;12.58;91.04
62420;BME280;48460;51.616;5.426;2022-07-04T01:15:48;101934.50;;;12.63;90.80
62420;BME280;48460;51.616;5.426;2022-07-04T01:18:14;101938.31;;;12.56;91.91
62420;BME280;48460;51.616;5.426;2022-07-04T01:20:40;101923.78;;;12.46;92.07
62420;BME280;48460;51.616;5.426;2022-07-04T01:23:05;101931.06;;;12.41;91.91
62420;BME280;48460;51.616;5.426;2022-07-04T01:25:32;101929.34;;;12.40;91.45
62420;BME280;48460;51.616;5.426;2022-07-04T01:28:01;101934.31;;;12.25;92.33
62420;BME280;48460;51.616;5.426;2022-07-04T01:30:28;101930.44;;;12.14;92.75
62420;BME280;48460;51.616;5.426;2022-07-04T01:32:54;101929.56;;;12.13;93.45
62420;BME280;48460;51.616;5.426;2022-07-04T01:35:21;101923.44;;;12.13;93.38
62420;BME280;48460;51.616;5.426;2022-07-04T01:37:47;101932.03;;;12.18;93.03
62420;BME280;48460;51.616;5.426;2022-07-04T01:40:12;101923.31;;;12.16;92.82
62420;BME280;48460;51.616;5.426;2022-07-04T01:42:41;101924.28;;;12.13;93.24
62420;BME280;48460;51.616;5.426;2022-07-04T01:45:08;101926.88;;;12.15;92.47
62420;BME280;48460;51.616;5.426;2022-07-04T01:47:35;101927.00;;;12.12;92.80
62420;BME280;48460;51.616;5.426;2022-07-04T01:50:01;101920.91;;;12.09;92.24
62420;BME280;48460;51.616;5.426;2022-07-04T01:52:27;101925.22;;;12.12;92.78
62420;BME280;48460;51.616;5.426;2022-07-04T01:54:52;101924.16;;;12.16;93.31
62420;BME280;48460;51.616;5.426;2022-07-04T01:57:18;101917.13;;;12.17;93.17
62420;BME280;48460;51.616;5.426;2022-07-04T01:59:43;101912.97;;;12.11;92.89
62420;BME280;48460;51.616;5.426;2022-07-04T02:02:27;101908.66;;;12.08;92.37
62420;BME280;48460;51.616;5.426;2022-07-04T02:04:53;101911.44;;;12.05;92.55
62420;BME280;48460;51.616;5.426;2022-07-04T02:07:18;101914.75;;;12.11;92.46
62420;BME280;48460;51.616;5.426;2022-07-04T02:09:43;101911.09;;;12.13;92.67
62420;BME280;48460;51.616;5.426;2022-07-04T02:12:09;101912.50;;;12.22;92.22
62420;BME280;48460;51.616;5.426;2022-07-04T02:14:53;101922.28;;;12.20;92.83
62420;BME280;48460;51.616;5.426;2022-07-04T02:17:19;101909.94;;;12.20;93.04
62420;BME280;48460;51.616;5.426;2022-07-04T02:19:44;101909.13;;;12.18;92.17
62420;BME280;48460;51.616;5.426;2022-07-04T02:22:10;101904.84;;;12.16;91.81
62420;BME280;48460;51.616;5.426;2022-07-04T02:24:35;101905.91;;;12.12;91.95
62420;BME280;48460;51.616;5.426;2022-07-04T02:27:01;101905.91;;;12.12;92.36
62420;BME280;48460;51.616;5.426;2022-07-04T02:29:26;101909.41;;;12.12;92.16
62420;BME280;48460;51.616;5.426;2022-07-04T02:31:52;101909.47;;;12.11;91.71
62420;BME280;48460;51.616;5.426;2022-07-04T02:34:17;101916.84;;;12.02;91.58
62420;BME280;48460;51.616;5.426;2022-07-04T02:36:43;101919.88;;;11.92;92.23
62420;BME280;48460;51.616;5.426;2022-07-04T02:39:08;101909.94;;;11.76;93.00
62420;BME280;48460;51.616;5.426;2022-07-04T02:41:34;101916.38;;;11.69;93.64
62420;BME280;48460;51.616;5.426;2022-07-04T02:43:59;101924.28;;;11.69;93.65
62420;BME280;48460;51.616;5.426;2022-07-04T02:46:25;101918.25;;;11.66;93.91
62420;BME280;48460;51.616;5.426;2022-07-04T02:48:50;101918.31;;;11.64;93.80
62420;BME280;48460;51.616;5.426;2022-07-04T02:51:16;101918.25;;;11.66;93.83
62420;BME280;48460;51.616;5.426;2022-07-04T02:53:41;101923.41;;;11.69;94.04
62420;BME280;48460;51.616;5.426;2022-07-04T02:56:07;101923.34;;;11.70;94.46
62420;BME280;48460;51.616;5.426;2022-07-04T02:58:32;101925.38;;;11.63;95.28
62420;BME280;48460;51.616;5.426;2022-07-04T03:00:58;101923.53;;;11.66;95.06
62420;BME280;48460;51.616;5.426;2022-07-04T03:03:24;101921.78;;;11.66;95.03
62420;BME280;48460;51.616;5.426;2022-07-04T03:05:50;101921.00;;;11.62;95.33
62420;BME280;48460;51.616;5.426;2022-07-04T03:08:15;101933.53;;;11.57;95.09
62420;BME280;48460;51.616;5.426;2022-07-04T03:10:40;101932.72;;;11.55;95.14
62420;BME280;48460;51.616;5.426;2022-07-04T03:13:06;101942.63;;;11.49;95.80
62420;BME280;48460;51.616;5.426;2022-07-04T03:15:31;101943.66;;;11.45;95.56
62420;BME280;48460;51.616;5.426;2022-07-04T03:17:57;101937.75;;;11.38;96.40
62420;BME280;48460;51.616;5.426;2022-07-04T03:20:22;101944.91;;;11.34;97.39
62420;BME280;48460;51.616;5.426;2022-07-04T03:22:48;101948.53;;;11.32;97.87
62420;BME280;48460;51.616;5.426;2022-07-04T03:25:14;101951.28;;;11.29;98.08
62420;BME280;48460;51.616;5.426;2022-07-04T03:27:40;101947.91;;;11.25;97.88
62420;BME280;48460;51.616;5.426;2022-07-04T03:30:05;101950.53;;;11.25;98.13
62420;BME280;48460;51.616;5.426;2022-07-04T03:32:31;101954.03;;;11.26;98.16
62420;BME280;48460;51.616;5.426;2022-07-04T03:34:56;101948.59;;;11.30;97.87
62420;BME280;48460;51.616;5.426;2022-07-04T03:37:22;101958.25;;;11.30;97.97
62420;BME280;48460;51.616;5.426;2022-07-04T03:39:47;101962.88;;;11.23;97.04
62420;BME280;48460;51.616;5.426;2022-07-04T03:42:12;101957.94;;;11.15;97.02
62420;BME280;48460;51.616;5.426;2022-07-04T03:44:38;101962.41;;;11.12;97.07
62420;BME280;48460;51.616;5.426;2022-07-04T03:47:03;101955.28;;;11.15;97.58
62420;BME280;48460;51.616;5.426;2022-07-04T03:49:29;101973.75;;;11.14;97.73
62420;BME280;48460;51.616;5.426;2022-07-04T03:51:54;101970.31;;;11.12;97.86
62420;BME280;48460;51.616;5.426;2022-07-04T03:54:19;101977.44;;;11.10;98.28
62420;BME280;48460;51.616;5.426;2022-07-04T03:56:45;101986.81;;;11.17;98.26
62420;BME280;48460;51.616;5.426;2022-07-04T03:59:10;101980.50;;;11.21;97.99
62420;BME280;48460;51.616;5.426;2022-07-04T04:01:36;101982.06;;;11.27;98.55
62420;BME280;48460;51.616;5.426;2022-07-04T04:04:01;101989.69;;;11.34;98.46
62420;BME280;48460;51.616;5.426;2022-07-04T04:06:45;101980.75;;;11.38;98.63
62420;BME280;48460;51.616;5.426;2022-07-04T04:09:10;101980.53;;;11.45;99.03
62420;BME280;48460;51.616;5.426;2022-07-04T04:11:41;101983.97;;;11.47;98.62
62420;BME280;48460;51.616;5.426;2022-07-04T04:14:07;101990.94;;;11.48;98.51
62420;BME280;48460;51.616;5.426;2022-07-04T04:16:32;101986.59;;;11.47;99.08
62420;BME280;48460;51.616;5.426;2022-07-04T04:18:57;101990.09;;;11.47;99.36
62420;BME280;48460;51.616;5.426;2022-07-04T04:21:23;101991.59;;;11.54;98.62
62420;BME280;48460;51.616;5.426;2022-07-04T04:23:48;101992.38;;;11.56;99.52
62420;BME280;48460;51.616;5.426;2022-07-04T04:26:14;101986.94;;;11.61;99.61
62420;BME280;48460;51.616;5.426;2022-07-04T04:28:39;101994.63;;;11.67;99.69
62420;BME280;48460;51.616;5.426;2022-07-04T04:31:04;101998.84;;;11.71;99.83
62420;BME280;48460;51.616;5.426;2022-07-04T04:33:30;101996.91;;;11.76;100.00
62420;BME280;48460;51.616;5.426;2022-07-04T04:35:55;102000.28;;;11.80;100.00
62420;BME280;48460;51.616;5.426;2022-07-04T04:38:21;101999.31;;;11.82;100.00
62420;BME280;48460;51.616;5.426;2022-07-04T04:40:46;101988.66;;;11.85;100.00
62420;BME280;48460;51.616;5.426;2022-07-04T04:43:11;101990.25;;;11.90;100.00
62420;BME280;48460;51.616;5.426;2022-07-04T04:45:37;101994.56;;;11.92;100.00
62420;BME280;48460;51.616;5.426;2022-07-04T04:48:02;101985.66;;;11.95;100.00
62420;BME280;48460;51.616;5.426;2022-07-04T04:50:28;101991.03;;;11.93;100.00
62420;BME280;48460;51.616;5.426;2022-07-04T04:52:53;101991.75;;;11.97;100.00
62420;BME280;48460;51.616;5.426;2022-07-04T04:55:19;101987.16;;;12.02;100.00
62420;BME280;48460;51.616;5.426;2022-07-04T04:57:44;101992.34;;;12.03;100.00
62420;BME280;48460;51.616;5.426;2022-07-04T05:00:10;101996.56;;;12.07;100.00
62420;BME280;48460;51.616;5.426;2022-07-04T05:02:35;101994.81;;;12.08;100.00
62420;BME280;48460;51.616;5.426;2022-07-04T05:05:01;101995.56;;;12.12;100.00
62420;BME280;48460;51.616;5.426;2022-07-04T05:07:26;101989.06;;;12.20;100.00
62420;BME280;48460;51.616;5.426;2022-07-04T05:09:52;101986.97;;;12.28;100.00
62420;BME280;48460;51.616;5.426;2022-07-04T05:12:23;101987.44;;;12.38;100.00
62420;BME280;48460;51.616;5.426;2022-07-04T05:14:49;101979.03;;;12.50;100.00
62420;BME280;48460;51.616;5.426;2022-07-04T05:17:14;101987.41;;;12.60;100.00
62420;BME280;48460;51.616;5.426;2022-07-04T05:19:39;101985.22;;;12.70;100.00
62420;BME280;48460;51.616;5.426;2022-07-04T05:22:05;101984.78;;;12.81;100.00
62420;BME280;48460;51.616;5.426;2022-07-04T05:24:30;101979.19;;;12.88;100.00
62420;BME280;48460;51.616;5.426;2022-07-04T05:26:55;101984.91;;;12.98;100.00
62420;BME280;48460;51.616;5.426;2022-07-04T05:29:21;101988.97;;;13.05;100.00
62420;BME280;48460;51.616;5.426;2022-07-04T05:31:46;101995.59;;;13.15;100.00
62420;BME280;48460;51.616;5.426;2022-07-04T05:34:11;102005.81;;;13.23;99.13
62420;BME280;48460;51.616;5.426;2022-07-04T05:36:37;102005.56;;;13.29;99.68
62420;BME280;48460;51.616;5.426;2022-07-04T05:39:02;102010.38;;;13.40;99.03
62420;BME280;48460;51.616;5.426;2022-07-04T05:41:28;102009.94;;;13.49;97.80
62420;BME280;48460;51.616;5.426;2022-07-04T05:43:53;102017.59;;;13.55;97.43
62420;BME280;48460;51.616;5.426;2022-07-04T05:46:19;102010.84;;;13.68;97.10
62420;BME280;48460;51.616;5.426;2022-07-04T05:48:44;102012.13;;;13.79;96.89
62420;BME280;48460;51.616;5.426;2022-07-04T05:51:09;102017.63;;;13.93;96.87
62420;BME280;48460;51.616;5.426;2022-07-04T05:53:35;102009.81;;;14.09;97.17
62420;BME280;48460;51.616;5.426;2022-07-04T05:56:00;102016.94;;;14.26;97.04
62420;BME280;48460;51.616;5.426;2022-07-04T05:58:26;102010.03;;;14.41;95.19
62420;BME280;48460;51.616;5.426;2022-07-04T06:00:51;102008.63;;;14.51;93.48
62420;BME280;48460;51.616;5.426;2022-07-04T06:03:16;102014.97;;;14.66;92.85
62420;BME280;48460;51.616;5.426;2022-07-04T06:05:42;102016.00;;;14.80;91.49
62420;BME280;48460;51.616;5.426;2022-07-04T06:08:07;102027.44;;;14.98;92.52
62420;BME280;48460;51.616;5.426;2022-07-04T06:10:32;102031.09;;;15.13;89.65
62420;BME280;48460;51.616;5.426;2022-07-04T06:12:58;102039.50;;;15.21;88.69
62420;BME280;48460;51.616;5.426;2022-07-04T06:15:24;102031.50;;;15.23;88.34
62420;BME280;48460;51.616;5.426;2022-07-04T06:17:49;102022.34;;;15.28;88.27
62420;BME280;48460;51.616;5.426;2022-07-04T06:20:15;102027.53;;;15.47;87.58
62420;BME280;48460;51.616;5.426;2022-07-04T06:22:46;102023.81;;;15.67;88.44
62420;BME280;48460;51.616;5.426;2022-07-04T06:25:16;102018.88;;;15.77;86.11
62420;BME280;48460;51.616;5.426;2022-07-04T06:27:44;102020.69;;;15.92;86.89
62420;BME280;48460;51.616;5.426;2022-07-04T06:30:11;102011.97;;;16.06;84.24
62420;BME280;48460;51.616;5.426;2022-07-04T06:32:48;102010.44;;;16.32;85.39
62420;BME280;48460;51.616;5.426;2022-07-04T06:35:19;102005.81;;;16.52;82.37
62420;BME280;48460;51.616;5.426;2022-07-04T06:38:04;102011.00;;;16.69;80.78
62420;BME280;48460;51.616;5.426;2022-07-04T06:40:30;102010.13;;;16.69;79.87
62420;BME280;48460;51.616;5.426;2022-07-04T06:42:55;102006.41;;;16.71;80.23
62420;BME280;48460;51.616;5.426;2022-07-04T06:45:20;102006.50;;;16.85;79.67
62420;BME280;48460;51.616;5.426;2022-07-04T06:47:46;102011.63;;;16.89;79.83
62420;BME280;48460;51.616;5.426;2022-07-04T06:50:12;102013.25;;;16.91;79.07
62420;BME280;48460;51.616;5.426;2022-07-04T06:52:38;102017.63;;;17.06;81.98
62420;BME280;48460;51.616;5.426;2022-07-04T06:55:05;102012.16;;;17.24;77.69
62420;BME280;48460;51.616;5.426;2022-07-04T06:57:30;102014.34;;;17.31;76.59
62420;BME280;48460;51.616;5.426;2022-07-04T06:59:55;102009.59;;;17.22;76.89
62420;BME280;48460;51.616;5.426;2022-07-04T07:02:21;102007.66;;;17.10;76.30
62420;BME280;48460;51.616;5.426;2022-07-04T07:04:46;102012.41;;;17.05;77.32
62420;BME280;48460;51.616;5.426;2022-07-04T07:07:11;101999.47;;;16.84;78.69
62420;BME280;48460;51.616;5.426;2022-07-04T07:09:37;102010.69;;;16.74;78.76
62420;BME280;48460;51.616;5.426;2022-07-04T07:12:02;102015.34;;;16.70;78.84
62420;BME280;48460;51.616;5.426;2022-07-04T07:14:28;102012.50;;;16.73;79.09
62420;BME280;48460;51.616;5.426;2022-07-04T07:16:55;102018.28;;;16.96;80.12
62420;BME280;48460;51.616;5.426;2022-07-04T07:19:20;102023.81;;;17.21;77.33
62420;BME280;48460;51.616;5.426;2022-07-04T07:21:45;102025.72;;;17.48;78.36
62420;BME280;48460;51.616;5.426;2022-07-04T07:24:11;102027.72;;;17.73;74.74
62420;BME280;48460;51.616;5.426;2022-07-04T07:26:36;102018.22;;;17.83;74.08
62420;BME280;48460;51.616;5.426;2022-07-04T07:29:02;102019.59;;;18.03;74.13
62420;BME280;48460;51.616;5.426;2022-07-04T07:31:27;102020.09;;;18.22;75.17
62420;BME280;48460;51.616;5.426;2022-07-04T07:33:53;102023.47;;;18.39;71.98
62420;BME280;48460;51.616;5.426;2022-07-04T07:36:18;102013.28;;;18.45;72.22
62420;BME280;48460;51.616;5.426;2022-07-04T07:38:44;102011.47;;;18.59;72.17
62420;BME280;48460;51.616;5.426;2022-07-04T07:41:10;102008.59;;;18.89;71.99
62420;BME280;48460;51.616;5.426;2022-07-04T07:43:38;102012.00;;;18.78;70.69
62420;BME280;48460;51.616;5.426;2022-07-04T07:46:06;102000.34;;;18.79;71.18
62420;BME280;48460;51.616;5.426;2022-07-04T07:48:32;101998.78;;;18.89;70.34
62420;BME280;48460;51.616;5.426;2022-07-04T07:50:57;102007.41;;;18.93;70.61
62420;BME280;48460;51.616;5.426;2022-07-04T07:53:23;101994.41;;;19.14;69.72
62420;BME280;48460;51.616;5.426;2022-07-04T07:55:48;102001.53;;;19.39;69.15
62420;BME280;48460;51.616;5.426;2022-07-04T07:58:14;102003.63;;;19.59;67.28
62420;BME280;48460;51.616;5.426;2022-07-04T08:00:39;101999.38;;;19.57;66.52
62420;BME280;48460;51.616;5.426;2022-07-04T08:03:05;101994.28;;;19.67;64.03
62420;BME280;48460;51.616;5.426;2022-07-04T08:05:49;101999.34;;;19.83;65.24
62420;BME280;48460;51.616;5.426;2022-07-04T08:08:14;101993.72;;;19.98;63.96
62420;BME280;48460;51.616;5.426;2022-07-04T08:10:39;101992.50;;;20.15;63.49
62420;BME280;48460;51.616;5.426;2022-07-04T08:13:05;102000.69;;;20.25;62.92
62420;BME280;48460;51.616;5.426;2022-07-04T08:15:31;101995.91;;;20.41;60.82
62420;BME280;48460;51.616;5.426;2022-07-04T08:17:56;101998.56;;;20.41;60.84
62420;BME280;48460;51.616;5.426;2022-07-04T08:20:22;102008.00;;;20.34;60.66
62420;BME280;48460;51.616;5.426;2022-07-04T08:22:47;102008.91;;;20.46;60.82
62420;BME280;48460;51.616;5.426;2022-07-04T08:25:13;102007.72;;;20.50;60.15
62420;BME280;48460;51.616;5.426;2022-07-04T08:27:40;102005.13;;;20.73;60.67
62420;BME280;48460;51.616;5.426;2022-07-04T08:30:06;102009.81;;;20.93;58.64
62420;BME280;48460;51.616;5.426;2022-07-04T08:32:33;102014.53;;;20.89;59.35
62420;BME280;48460;51.616;5.426;2022-07-04T08:34:58;102012.47;;;20.93;59.37
62420;BME280;48460;51.616;5.426;2022-07-04T08:37:24;102015.81;;;21.19;58.55
62420;BME280;48460;51.616;5.426;2022-07-04T08:39:49;102015.59;;;21.56;59.33
62420;BME280;48460;51.616;5.426;2022-07-04T08:42:20;102019.50;;;21.63;58.90
62420;BME280;48460;51.616;5.426;2022-07-04T08:44:51;102012.75;;;21.91;57.10
62420;BME280;48460;51.616;5.426;2022-07-04T08:47:21;102013.41;;;21.83;57.44
62420;BME280;48460;51.616;5.426;2022-07-04T08:49:53;102022.28;;;21.84;58.52
62420;BME280;48460;51.616;5.426;2022-07-04T08:52:30;102013.31;;;22.06;57.00
62420;BME280;48460;51.616;5.426;2022-07-04T08:54:57;102003.19;;;22.10;54.47
62420;BME280;48460;51.616;5.426;2022-07-04T08:57:42;102008.22;;;22.03;56.66
62420;BME280;48460;51.616;5.426;2022-07-04T09:00:27;102008.44;;;22.22;54.63
62420;BME280;48460;51.616;5.426;2022-07-04T09:02:52;102001.09;;;22.36;56.27
62420;BME280;48460;51.616;5.426;2022-07-04T09:05:18;102013.34;;;22.70;56.75
62420;BME280;48460;51.616;5.426;2022-07-04T09:07:44;102010.88;;;22.79;51.92
62420;BME280;48460;51.616;5.426;2022-07-04T09:10:09;102012.38;;;22.71;53.33
62420;BME280;48460;51.616;5.426;2022-07-04T09:12:35;102015.72;;;23.06;54.01
62420;BME280;48460;51.616;5.426;2022-07-04T09:15:00;102016.13;;;23.62;51.79
62420;BME280;48460;51.616;5.426;2022-07-04T09:17:28;102014.97;;;23.96;51.19
62420;BME280;48460;51.616;5.426;2022-07-04T09:20:17;102013.00;;;23.67;52.13
62420;BME280;48460;51.616;5.426;2022-07-04T09:22:43;102020.88;;;23.49;50.10
62420;BME280;48460;51.616;5.426;2022-07-04T09:25:09;102017.34;;;23.49;49.36
62420;BME280;48460;51.616;5.426;2022-07-04T09:27:39;102015.22;;;23.52;49.36
62420;BME280;48460;51.616;5.426;2022-07-04T09:30:13;102018.50;;;23.56;48.64
62420;BME280;48460;51.616;5.426;2022-07-04T09:32:41;102015.81;;;23.86;49.63
62420;BME280;48460;51.616;5.426;2022-07-04T09:35:19;102011.94;;;23.79;49.23
62420;BME280;48460;51.616;5.426;2022-07-04T09:37:47;102011.44;;;23.64;49.50
62420;BME280;48460;51.616;5.426;2022-07-04T09:40:45;102013.31;;;23.33;50.31
62420;BME280;48460;51.616;5.426;2022-07-04T09:43:35;102007.84;;;23.75;50.01
62420;BME280;48460;51.616;5.426;2022-07-04T09:46:00;102010.47;;;24.16;48.31
62420;BME280;48460;51.616;5.426;2022-07-04T09:48:49;102008.91;;;24.71;47.31
62420;BME280;48460;51.616;5.426;2022-07-04T09:51:15;101995.44;;;24.91;46.90
62420;BME280;48460;51.616;5.426;2022-07-04T09:54:12;101990.88;;;25.01;47.28
62420;BME280;48460;51.616;5.426;2022-07-04T09:56:42;102006.94;;;24.34;47.76
62420;BME280;48460;51.616;5.426;2022-07-04T09:59:07;102009.59;;;24.05;47.74
62420;BME280;48460;51.616;5.426;2022-07-04T10:01:33;102004.84;;;23.69;47.83
62420;BME280;48460;51.616;5.426;2022-07-04T10:03:58;102018.81;;;23.32;47.57
62420;BME280;48460;51.616;5.426;2022-07-04T10:06:25;102012.97;;;22.96;50.42
62420;BME280;48460;51.616;5.426;2022-07-04T10:08:50;102011.84;;;22.78;50.36
62420;BME280;48460;51.616;5.426;2022-07-04T10:11:16;102002.09;;;22.77;51.98
62420;BME280;48460;51.616;5.426;2022-07-04T10:13:43;102000.63;;;22.72;52.15
62420;BME280;48460;51.616;5.426;2022-07-04T10:16:10;102004.28;;;23.34;51.12
62420;BME280;48460;51.616;5.426;2022-07-04T10:18:36;102001.06;;;23.71;49.93
62420;BME280;48460;51.616;5.426;2022-07-04T10:21:02;101997.09;;;23.75;50.19
62420;BME280;48460;51.616;5.426;2022-07-04T10:23:28;101998.84;;;23.86;49.09
62420;BME280;48460;51.616;5.426;2022-07-04T10:25:57;101988.66;;;24.09;49.31
62420;BME280;48460;51.616;5.426;2022-07-04T10:28:23;101992.34;;;23.98;47.79
62420;BME280;48460;51.616;5.426;2022-07-04T10:30:51;101994.19;;;23.57;49.67
62420;BME280;48460;51.616;5.426;2022-07-04T10:33:22;101983.09;;;23.72;48.90
62420;BME280;48460;51.616;5.426;2022-07-04T10:35:53;101975.66;;;24.14;48.76
62420;BME280;48460;51.616;5.426;2022-07-04T10:38:24;101973.41;;;24.09;47.99
62420;BME280;48460;51.616;5.426;2022-07-04T10:46:04;101981.78;;;23.66;50.35
62420;BME280;48460;51.616;5.426;2022-07-04T10:48:53;101983.44;;;23.48;50.52
62420;BME280;48460;51.616;5.426;2022-07-04T10:51:47;101980.69;;;23.38;51.46
62420;BME280;48460;51.616;5.426;2022-07-04T10:56:49;101983.69;;;23.14;53.29
62420;BME280;48460;51.616;5.426;2022-07-04T11:07:16;101979.47;;;23.11;54.63
62420;BME280;48460;51.616;5.426;2022-07-04T11:09:43;101984.91;;;22.79;55.25
62420;BME280;48460;51.616;5.426;2022-07-04T11:12:10;101985.53;;;22.71;56.85
62420;BME280;48460;51.616;5.426;2022-07-04T11:14:45;101977.19;;;22.65;57.87
62420;BME280;48460;51.616;5.426;2022-07-04T11:17:37;101982.53;;;22.86;56.30
62420;BME280;48460;51.616;5.426;2022-07-04T11:20:03;101981.13;;;23.43;55.39
62420;BME280;48460;51.616;5.426;2022-07-04T11:22:29;101976.63;;;23.84;53.37
62420;BME280;48460;51.616;5.426;2022-07-04T11:24:57;101981.03;;;24.14;52.02
62420;BME280;48460;51.616;5.426;2022-07-04T11:27:23;101974.41;;;24.67;50.91
62420;BME280;48460;51.616;5.426;2022-07-04T11:29:50;101977.75;;;24.88;50.16
62420;BME280;48460;51.616;5.426;2022-07-04T11:32:15;101963.47;;;25.25;50.16
62420;BME280;48460;51.616;5.426;2022-07-04T11:34:41;101970.28;;;24.72;49.96
62420;BME280;48460;51.616;5.426;2022-07-04T11:37:06;101964.75;;;24.74;48.81
62420;BME280;48460;51.616;5.426;2022-07-04T11:39:32;101962.81;;;25.13;48.26
62420;BME280;48460;51.616;5.426;2022-07-04T11:41:57;101964.00;;;24.91;46.01
62420;BME280;48460;51.616;5.426;2022-07-04T11:44:41;101961.22;;;24.15;45.70
62420;BME280;48460;51.616;5.426;2022-07-04T11:47:38;101961.78;;;23.80;48.92
62420;BME280;48460;51.616;5.426;2022-07-04T11:50:14;101958.72;;;23.63;49.20
62420;BME280;48460;51.616;5.426;2022-07-04T11:52:49;101957.84;;;24.13;48.87
62420;BME280;48460;51.616;5.426;2022-07-04T11:55:19;101953.69;;;24.77;47.18
62420;BME280;48460;51.616;5.426;2022-07-04T11:57:50;101949.19;;;25.52;45.04
62420;BME280;48460;51.616;5.426;2022-07-04T12:00:24;101939.47;;;25.87;44.23
62420;BME280;48460;51.616;5.426;2022-07-04T12:02:50;101934.91;;;25.14;42.05
62420;BME280;48460;51.616;5.426;2022-07-04T12:05:16;101938.38;;;24.77;42.67
62420;BME280;48460;51.616;5.426;2022-07-04T12:07:44;101947.22;;;24.41;43.35
62420;BME280;48460;51.616;5.426;2022-07-04T12:13:03;101954.75;;;23.67;47.64
62420;BME280;48460;51.616;5.426;2022-07-04T12:15:39;101944.66;;;23.71;46.51
62420;BME280;48460;51.616;5.426;2022-07-04T12:18:17;101924.53;;;24.63;44.98
62420;BME280;48460;51.616;5.426;2022-07-04T12:20:43;101931.38;;;25.41;44.25
62420;BME280;48460;51.616;5.426;2022-07-04T12:23:09;101928.00;;;26.47;41.75
62420;BME280;48460;51.616;5.426;2022-07-04T12:25:38;101938.97;;;26.89;41.14
62420;BME280;48460;51.616;5.426;2022-07-04T12:28:09;101937.63;;;26.93;39.83
62420;BME280;48460;51.616;5.426;2022-07-04T12:30:40;101938.84;;;26.73;39.64
62420;BME280;48460;51.616;5.426;2022-07-04T12:33:12;101930.28;;;26.51;40.55
62420;BME280;48460;51.616;5.426;2022-07-04T12:35:55;101935.13;;;27.00;39.42
62420;BME280;48460;51.616;5.426;2022-07-04T12:41:08;101920.09;;;28.07;38.29
62420;BME280;48460;51.616;5.426;2022-07-04T12:46:05;101916.97;;;28.92;36.32
62420;BME280;48460;51.616;5.426;2022-07-04T12:48:32;101916.63;;;28.95;35.88
62420;BME280;48460;51.616;5.426;2022-07-04T12:51:13;101920.97;;;28.24;36.83
62420;BME280;48460;51.616;5.426;2022-07-04T12:53:41;101920.13;;;28.48;36.81
62420;BME280;48460;51.616;5.426;2022-07-04T12:56:07;101914.19;;;28.36;35.68
62420;BME280;48460;51.616;5.426;2022-07-04T12:58:33;101902.19;;;29.42;35.15
62420;BME280;48460;51.616;5.426;2022-07-04T13:00:59;101904.91;;;28.94;33.06
62420;BME280;48460;51.616;5.426;2022-07-04T13:03:25;101904.16;;;28.69;33.96
62420;BME280;48460;51.616;5.426;2022-07-04T13:05:50;101897.75;;;28.62;35.41
62420;BME280;48460;51.616;5.426;2022-07-04T13:08:16;101897.75;;;28.37;33.62
62420;BME280;48460;51.616;5.426;2022-07-04T13:10:42;101903.66;;;28.66;32.63
62420;BME280;48460;51.616;5.426;2022-07-04T13:13:07;101906.06;;;29.16;33.79
62420;BME280;48460;51.616;5.426;2022-07-04T13:15:32;101900.47;;;29.18;35.55